sensor_id;sensor_type;location;lat;lon;timestamp;pressure;altitude;pressure_sealevel;temperature;humidity
9335;BME280;4706;41.844;26.082;2023-03-25T00:00:57;100611.19;;;12.40;67.18
9335;BME280;4706;41.844;26.082;2023-03-25T00:03:29;100616.06;;;12.21;67.84
9335;BME280;4706;41.844;26.082;2023-03-25T00:05:56;100609.00;;;12.29;67.86
9335;BME280;4706;41.844;26.082;2023-03-25T00:08:23;100611.28;;;12.13;67.93
9335;BME280;4706;41.844;26.082;2023-03-25T00:10:57;100611.41;;;12.08;67.92
9335;BME280;4706;41.844;26.082;2023-03-25T00:13:23;100602.47;;;11.88;68.65
9335;BME280;4706;41.844;26.082;2023-03-25T00:15:51;100607.47;;;11.86;68.83
9335;BME280;4706;41.844;26.082;2023-03-25T00:18:21;100601.19;;;11.81;69.77
9335;BME280;4706;41.844;26.082;2023-03-25T00:20:51;100598.06;;;11.60;70.15
9335;BME280;4706;41.844;26.082;2023-03-25T00:23:18;100600.09;;;11.54;71.01
9335;BME280;4706;41.844;26.082;2023-03-25T00:25:45;100599.09;;;11.50;71.79
9335;BME280;4706;41.844;26.082;2023-03-25T00:28:11;100584.81;;;11.34;72.70
9335;BME280;4706;41.844;26.082;2023-03-25T00:30:39;100590.53;;;11.52;73.20
9335;BME280;4706;41.844;26.082;2023-03-25T00:33:04;100586.44;;;11.63;72.67
9335;BME280;4706;41.844;26.082;2023-03-25T00:35:30;100583.25;;;11.70;73.32
9335;BME280;4706;41.844;26.082;2023-03-25T00:37:57;100590.41;;;11.84;73.18
9335;BME280;4706;41.844;26.082;2023-03-25T00:40:29;100554.09;;;11.68;72.17
9335;BME280;4706;41.844;26.082;2023-03-25T00:43:00;100594.00;;;11.85;72.26
9335;BME280;4706;41.844;26.082;2023-03-25T00:45:26;100580.44;;;11.88;70.92
9335;BME280;4706;41.844;26.082;2023-03-25T00:47:51;100592.94;;;11.81;71.13
9335;BME280;4706;41.844;26.082;2023-03-25T00:50:17;100579.38;;;11.84;70.68
9335;BME280;4706;41.844;26.082;2023-03-25T00:52:42;100585.22;;;11.97;70.32
9335;BME280;4706;41.844;26.082;2023-03-25T00:55:08;100580.56;;;12.06;69.89
9335;BME280;4706;41.844;26.082;2023-03-25T00:57:34;100575.69;;;12.03;69.02
9335;BME280;4706;41.844;26.082;2023-03-25T01:00:00;100585.28;;;12.05;69.39
9335;BME280;4706;41.844;26.082;2023-03-25T01:02:26;100574.06;;;12.02;69.37
9335;BME280;4706;41.844;26.082;2023-03-25T01:04:51;100572.72;;;11.99;69.22
9335;BME280;4706;41.844;26.082;2023-03-25T01:07:20;100575.69;;;12.03;69.05
9335;BME280;4706;41.844;26.082;2023-03-25T01:09:46;100569.53;;;12.06;68.99
9335;BME280;4706;41.844;26.082;2023-03-25T01:12:12;100564.97;;;12.01;68.67
9335;BME280;4706;41.844;26.082;2023-03-25T01:14:38;100565.16;;;12.05;67.48
9335;BME280;4706;41.844;26.082;2023-03-25T01:17:04;100566.59;;;12.02;67.00
9335;BME280;4706;41.844;26.082;2023-03-25T01:19:30;100557.66;;;11.97;67.36
9335;BME280;4706;41.844;26.082;2023-03-25T01:21:56;100555.81;;;11.78;67.21
9335;BME280;4706;41.844;26.082;2023-03-25T01:24:21;100555.09;;;11.73;68.04
9335;BME280;4706;41.844;26.082;2023-03-25T01:26:47;100551.31;;;11.68;68.33
9335;BME280;4706;41.844;26.082;2023-03-25T01:29:15;100556.44;;;11.61;68.82
9335;BME280;4706;41.844;26.082;2023-03-25T01:31:41;100536.06;;;11.49;69.08
9335;BME280;4706;41.844;26.082;2023-03-25T01:34:08;100542.78;;;11.56;69.53
9335;BME280;4706;41.844;26.082;2023-03-25T01:36:35;100548.88;;;11.67;69.16
9335;BME280;4706;41.844;26.082;2023-03-25T01:39:02;100535.41;;;11.65;69.78
9335;BME280;4706;41.844;26.082;2023-03-25T01:41:30;100546.00;;;11.72;69.58
9335;BME280;4706;41.844;26.082;2023-03-25T01:46:48;100538.47;;;11.78;69.63
9335;BME280;4706;41.844;26.082;2023-03-25T01:49:33;100536.44;;;11.83;69.67
9335;BME280;4706;41.844;26.082;2023-03-25T01:52:12;100527.75;;;11.76;69.98
9335;BME280;4706;41.844;26.082;2023-03-25T01:54:39;100519.47;;;11.76;70.26
9335;BME280;4706;41.844;26.082;2023-03-25T01:57:07;100514.28;;;11.75;69.94
9335;BME280;4706;41.844;26.082;2023-03-25T01:59:35;100517.53;;;11.77;70.30
9335;BME280;4706;41.844;26.082;2023-03-25T02:02:03;100517.53;;;11.77;69.96
9335;BME280;4706;41.844;26.082;2023-03-25T02:04:36;100522.94;;;11.82;70.50
9335;BME280;4706;41.844;26.082;2023-03-25T02:07:05;100519.81;;;11.61;70.68
9335;BME280;4706;41.844;26.082;2023-03-25T02:09:35;100510.38;;;11.26;71.87
9335;BME280;4706;41.844;26.082;2023-03-25T02:12:00;100507.53;;;11.17;71.79
9335;BME280;4706;41.844;26.082;2023-03-25T02:14:30;100513.84;;;11.17;71.56
9335;BME280;4706;41.844;26.082;2023-03-25T02:27:52;100519.25;;;11.23;70.95
9335;BME280;4706;41.844;26.082;2023-03-25T02:41:15;100521.88;;;11.00;68.04
9335;BME280;4706;41.844;26.082;2023-03-25T02:43:54;100508.44;;;10.99;67.96
9335;BME280;4706;41.844;26.082;2023-03-25T02:46:23;100512.81;;;10.86;68.43
9335;BME280;4706;41.844;26.082;2023-03-25T02:51:29;100498.31;;;10.34;70.10
9335;BME280;4706;41.844;26.082;2023-03-25T02:54:02;100509.03;;;10.35;70.53
9335;BME280;4706;41.844;26.082;2023-03-25T02:56:28;100501.59;;;10.36;70.35
9335;BME280;4706;41.844;26.082;2023-03-25T02:58:58;100500.19;;;10.38;70.49
9335;BME280;4706;41.844;26.082;2023-03-25T03:01:25;100502.97;;;10.52;70.14
9335;BME280;4706;41.844;26.082;2023-03-25T03:03:55;100493.53;;;10.72;69.85
9335;BME280;4706;41.844;26.082;2023-03-25T03:06:22;100498.44;;;10.89;69.64
9335;BME280;4706;41.844;26.082;2023-03-25T03:08:52;100491.81;;;11.04;68.56
9335;BME280;4706;41.844;26.082;2023-03-25T03:11:32;100493.38;;;11.10;68.53
9335;BME280;4706;41.844;26.082;2023-03-25T03:14:18;100485.72;;;11.07;68.33
9335;BME280;4706;41.844;26.082;2023-03-25T03:19:35;100476.47;;;10.56;68.55
9335;BME280;4706;41.844;26.082;2023-03-25T03:24:50;100486.47;;;10.19;70.00
9335;BME280;4706;41.844;26.082;2023-03-25T03:27:32;100489.88;;;10.30;69.40
9335;BME280;4706;41.844;26.082;2023-03-25T03:33:24;100477.91;;;10.21;68.61
9335;BME280;4706;41.844;26.082;2023-03-25T03:36:01;100489.47;;;10.04;69.06
9335;BME280;4706;41.844;26.082;2023-03-25T03:38:37;100479.53;;;9.89;69.54
9335;BME280;4706;41.844;26.082;2023-03-25T03:41:10;100497.31;;;9.73;70.22
9335;BME280;4706;41.844;26.082;2023-03-25T03:43:58;100501.88;;;9.64;70.23
9335;BME280;4706;41.844;26.082;2023-03-25T03:46:43;100515.88;;;10.00;70.08
9335;BME280;4706;41.844;26.082;2023-03-25T03:49:18;100492.41;;;10.08;69.66
9335;BME280;4706;41.844;26.082;2023-03-25T03:51:55;100502.03;;;10.24;69.63
9335;BME280;4706;41.844;26.082;2023-03-25T03:54:31;100508.81;;;10.32;69.13
9335;BME280;4706;41.844;26.082;2023-03-25T03:57:08;100512.00;;;10.39;69.35
9335;BME280;4706;41.844;26.082;2023-03-25T04:03:17;100510.97;;;10.35;67.99
9335;BME280;4706;41.844;26.082;2023-03-25T04:05:40;100519.34;;;10.43;68.08
9335;BME280;4706;41.844;26.082;2023-03-25T04:08:17;100520.00;;;10.54;68.12
9335;BME280;4706;41.844;26.082;2023-03-25T04:10:51;100520.81;;;10.55;68.09
9335;BME280;4706;41.844;26.082;2023-03-25T04:13:20;100525.31;;;10.64;68.25
9335;BME280;4706;41.844;26.082;2023-03-25T04:15:47;100522.63;;;10.59;68.30
9335;BME280;4706;41.844;26.082;2023-03-25T04:18:12;100505.97;;;10.37;68.64
9335;BME280;4706;41.844;26.082;2023-03-25T04:20:38;100514.44;;;10.40;68.81
9335;BME280;4706;41.844;26.082;2023-03-25T04:23:10;100511.03;;;10.11;69.73
9335;BME280;4706;41.844;26.082;2023-03-25T04:25:44;100501.41;;;9.94;70.69
9335;BME280;4706;41.844;26.082;2023-03-25T04:28:14;100502.97;;;10.01;70.23
9335;BME280;4706;41.844;26.082;2023-03-25T04:30:42;100499.81;;;10.07;70.45
9335;BME280;4706;41.844;26.082;2023-03-25T04:33:10;100501.19;;;9.53;72.41
9335;BME280;4706;41.844;26.082;2023-03-25T04:35:37;100508.91;;;9.70;72.23
9335;BME280;4706;41.844;26.082;2023-03-25T04:38:03;100492.63;;;9.55;73.25
9335;BME280;4706;41.844;26.082;2023-03-25T04:40:30;100505.56;;;9.54;74.45
9335;BME280;4706;41.844;26.082;2023-03-25T04:42:55;100502.47;;;9.80;74.01
9335;BME280;4706;41.844;26.082;2023-03-25T04:45:21;100501.94;;;9.78;73.70
9335;BME280;4706;41.844;26.082;2023-03-25T04:47:50;100479.00;;;9.68;74.24
9335;BME280;4706;41.844;26.082;2023-03-25T04:52:51;100491.06;;;9.30;75.70
9335;BME280;4706;41.844;26.082;2023-03-25T04:55:18;100481.69;;;9.12;76.81
9335;BME280;4706;41.844;26.082;2023-03-25T04:57:48;100492.34;;;9.13;77.21
9335;BME280;4706;41.844;26.082;2023-03-25T05:00:16;100486.59;;;9.15;76.72
9335;BME280;4706;41.844;26.082;2023-03-25T05:02:51;100497.97;;;9.27;76.02
9335;BME280;4706;41.844;26.082;2023-03-25T05:05:20;100500.56;;;9.37;76.08
9335;BME280;4706;41.844;26.082;2023-03-25T05:07:48;100497.06;;;9.32;76.05
9335;BME280;4706;41.844;26.082;2023-03-25T05:10:15;100496.72;;;9.38;75.03
9335;BME280;4706;41.844;26.082;2023-03-25T05:12:41;100489.41;;;9.71;71.98
9335;BME280;4706;41.844;26.082;2023-03-25T05:15:08;100496.81;;;9.71;71.44
9335;BME280;4706;41.844;26.082;2023-03-25T05:17:34;100489.69;;;9.70;71.63
9335;BME280;4706;41.844;26.082;2023-03-25T05:19:59;100493.53;;;9.69;71.86
9335;BME280;4706;41.844;26.082;2023-03-25T05:22:25;100482.09;;;9.62;71.97
9335;BME280;4706;41.844;26.082;2023-03-25T05:24:51;100470.69;;;9.73;72.25
9335;BME280;4706;41.844;26.082;2023-03-25T05:27:18;100496.81;;;10.09;71.49
9335;BME280;4706;41.844;26.082;2023-03-25T05:29:47;100502.72;;;10.35;70.99
9335;BME280;4706;41.844;26.082;2023-03-25T05:32:13;100509.97;;;10.44;70.85
9335;BME280;4706;41.844;26.082;2023-03-25T05:34:44;100496.16;;;10.63;70.19
9335;BME280;4706;41.844;26.082;2023-03-25T05:37:13;100489.94;;;10.72;69.98
9335;BME280;4706;41.844;26.082;2023-03-25T05:39:39;100493.84;;;10.84;69.82
9335;BME280;4706;41.844;26.082;2023-03-25T05:42:04;100490.50;;;10.87;69.80
9335;BME280;4706;41.844;26.082;2023-03-25T05:44:30;100480.94;;;10.99;69.44
9335;BME280;4706;41.844;26.082;2023-03-25T05:46:55;100487.00;;;10.82;70.94
9335;BME280;4706;41.844;26.082;2023-03-25T05:49:21;100483.56;;;11.17;70.36
9335;BME280;4706;41.844;26.082;2023-03-25T05:51:47;100472.25;;;11.19;70.80
9335;BME280;4706;41.844;26.082;2023-03-25T05:54:14;100487.91;;;11.46;71.13
9335;BME280;4706;41.844;26.082;2023-03-25T05:56:40;100478.41;;;11.52;70.99
9335;BME280;4706;41.844;26.082;2023-03-25T05:59:07;100489.97;;;11.77;71.22
9335;BME280;4706;41.844;26.082;2023-03-25T06:01:33;100486.03;;;12.05;70.51
9335;BME280;4706;41.844;26.082;2023-03-25T06:04:02;100489.38;;;12.16;70.39
9335;BME280;4706;41.844;26.082;2023-03-25T06:06:28;100494.94;;;12.25;70.65
9335;BME280;4706;41.844;26.082;2023-03-25T06:08:54;100490.78;;;12.13;71.58
9335;BME280;4706;41.844;26.082;2023-03-25T06:11:20;100475.06;;;11.91;72.75
9335;BME280;4706;41.844;26.082;2023-03-25T06:13:46;100499.88;;;12.14;72.85
9335;BME280;4706;41.844;26.082;2023-03-25T06:16:17;100490.22;;;12.25;72.85
9335;BME280;4706;41.844;26.082;2023-03-25T06:18:44;100478.59;;;12.59;72.01
9335;BME280;4706;41.844;26.082;2023-03-25T06:21:18;100483.91;;;12.56;72.67
9335;BME280;4706;41.844;26.082;2023-03-25T06:23:45;100486.41;;;12.66;71.78
9335;BME280;4706;41.844;26.082;2023-03-25T06:26:12;100488.13;;;12.84;71.13
9335;BME280;4706;41.844;26.082;2023-03-25T06:28:38;100494.03;;;13.00;71.05
9335;BME280;4706;41.844;26.082;2023-03-25T06:31:04;100492.16;;;13.18;69.98
9335;BME280;4706;41.844;26.082;2023-03-25T06:33:32;100484.59;;;13.32;69.74
9335;BME280;4706;41.844;26.082;2023-03-25T06:35:58;100490.63;;;13.43;69.45
9335;BME280;4706;41.844;26.082;2023-03-25T06:38:23;100494.56;;;13.59;69.20
9335;BME280;4706;41.844;26.082;2023-03-25T06:40:50;100450.09;;;13.21;69.94
9335;BME280;4706;41.844;26.082;2023-03-25T06:43:16;100483.84;;;13.84;68.99
9335;BME280;4706;41.844;26.082;2023-03-25T06:45:41;100456.84;;;13.90;67.91
9335;BME280;4706;41.844;26.082;2023-03-25T06:48:07;100488.84;;;14.25;66.82
9335;BME280;4706;41.844;26.082;2023-03-25T06:50:33;100489.50;;;14.40;67.11
9335;BME280;4706;41.844;26.082;2023-03-25T06:52:58;100492.06;;;14.71;66.02
9335;BME280;4706;41.844;26.082;2023-03-25T06:55:24;100480.09;;;14.88;64.98
9335;BME280;4706;41.844;26.082;2023-03-25T06:57:54;100483.53;;;14.93;65.31
9335;BME280;4706;41.844;26.082;2023-03-25T07:00:20;100480.91;;;14.88;65.27
9335;BME280;4706;41.844;26.082;2023-03-25T07:02:48;100494.59;;;14.93;65.36
9335;BME280;4706;41.844;26.082;2023-03-25T07:05:14;100481.47;;;15.11;64.61
9335;BME280;4706;41.844;26.082;2023-03-25T07:07:39;100484.97;;;15.29;64.68
9335;BME280;4706;41.844;26.082;2023-03-25T07:10:05;100478.97;;;15.18;64.30
9335;BME280;4706;41.844;26.082;2023-03-25T07:12:33;100475.50;;;15.30;64.61
9335;BME280;4706;41.844;26.082;2023-03-25T07:14:59;100475.47;;;15.68;63.44
9335;BME280;4706;41.844;26.082;2023-03-25T07:17:25;100471.38;;;15.87;62.94
9335;BME280;4706;41.844;26.082;2023-03-25T07:19:50;100469.75;;;16.07;62.65
9335;BME280;4706;41.844;26.082;2023-03-25T07:22:16;100481.28;;;16.30;61.64
9335;BME280;4706;41.844;26.082;2023-03-25T07:24:42;100478.81;;;16.49;61.04
9335;BME280;4706;41.844;26.082;2023-03-25T07:27:11;100472.59;;;16.64;60.79
9335;BME280;4706;41.844;26.082;2023-03-25T07:29:37;100481.84;;;16.56;61.42
9335;BME280;4706;41.844;26.082;2023-03-25T07:32:03;100488.56;;;16.67;60.85
9335;BME280;4706;41.844;26.082;2023-03-25T07:34:29;100486.78;;;16.96;60.25
9335;BME280;4706;41.844;26.082;2023-03-25T07:36:55;100467.34;;;17.20;59.28
9335;BME280;4706;41.844;26.082;2023-03-25T07:39:21;100480.66;;;17.39;58.63
9335;BME280;4706;41.844;26.082;2023-03-25T07:41:52;100473.91;;;17.65;58.28
9335;BME280;4706;41.844;26.082;2023-03-25T07:44:19;100470.84;;;17.82;57.98
9335;BME280;4706;41.844;26.082;2023-03-25T07:46:46;100461.97;;;17.52;57.98
9335;BME280;4706;41.844;26.082;2023-03-25T07:49:13;100470.53;;;17.59;57.77
9335;BME280;4706;41.844;26.082;2023-03-25T07:51:38;100474.38;;;17.55;58.66
9335;BME280;4706;41.844;26.082;2023-03-25T07:54:04;100479.94;;;17.79;57.95
9335;BME280;4706;41.844;26.082;2023-03-25T07:56:30;100470.16;;;17.85;57.72
9335;BME280;4706;41.844;26.082;2023-03-25T07:58:55;100470.47;;;17.96;57.46
9335;BME280;4706;41.844;26.082;2023-03-25T08:01:21;100454.38;;;18.17;56.59
9335;BME280;4706;41.844;26.082;2023-03-25T08:03:46;100461.66;;;17.94;58.22
9335;BME280;4706;41.844;26.082;2023-03-25T08:06:12;100458.88;;;18.22;56.84
9335;BME280;4706;41.844;26.082;2023-03-25T08:08:37;100461.19;;;18.20;56.63
9335;BME280;4706;41.844;26.082;2023-03-25T08:11:03;100452.22;;;18.11;56.96
9335;BME280;4706;41.844;26.082;2023-03-25T08:13:29;100454.94;;;18.23;57.08
9335;BME280;4706;41.844;26.082;2023-03-25T08:15:55;100456.41;;;18.33;55.93
9335;BME280;4706;41.844;26.082;2023-03-25T08:18:21;100446.03;;;18.17;56.82
9335;BME280;4706;41.844;26.082;2023-03-25T08:20:48;100434.50;;;18.47;56.20
9335;BME280;4706;41.844;26.082;2023-03-25T08:23:15;100441.19;;;18.74;55.13
9335;BME280;4706;41.844;26.082;2023-03-25T08:25:47;100430.94;;;18.78;54.85
9335;BME280;4706;41.844;26.082;2023-03-25T08:28:17;100424.34;;;19.18;53.89
9335;BME280;4706;41.844;26.082;2023-03-25T08:30:47;100420.19;;;19.28;53.79
9335;BME280;4706;41.844;26.082;2023-03-25T08:33:14;100425.63;;;19.40;53.40
9335;BME280;4706;41.844;26.082;2023-03-25T08:35:41;100413.41;;;19.45;52.86
9335;BME280;4706;41.844;26.082;2023-03-25T08:38:07;100415.06;;;19.30;53.50
9335;BME280;4706;41.844;26.082;2023-03-25T08:40:34;100413.75;;;19.43;54.05
9335;BME280;4706;41.844;26.082;2023-03-25T08:43:02;100411.72;;;19.59;53.00
9335;BME280;4706;41.844;26.082;2023-03-25T08:45:28;100413.31;;;19.76;51.07
9335;BME280;4706;41.844;26.082;2023-03-25T08:47:56;100404.13;;;19.95;51.28
9335;BME280;4706;41.844;26.082;2023-03-25T08:50:21;100393.00;;;20.18;51.00
9335;BME280;4706;41.844;26.082;2023-03-25T08:52:46;100393.00;;;20.18;51.06
9335;BME280;4706;41.844;26.082;2023-03-25T08:55:12;100396.31;;;20.24;50.73
9335;BME280;4706;41.844;26.082;2023-03-25T08:57:40;100383.94;;;20.25;50.24
9335;BME280;4706;41.844;26.082;2023-03-25T09:00:07;100394.53;;;20.16;51.36
9335;BME280;4706;41.844;26.082;2023-03-25T09:02:39;100385.06;;;20.20;50.56
9335;BME280;4706;41.844;26.082;2023-03-25T09:05:08;100378.91;;;20.11;50.64
9335;BME280;4706;41.844;26.082;2023-03-25T09:07:35;100381.72;;;20.57;50.03
9335;BME280;4706;41.844;26.082;2023-03-25T09:10:01;100367.16;;;20.94;49.12
9335;BME280;4706;41.844;26.082;2023-03-25T09:12:27;100380.41;;;20.97;48.72
9335;BME280;4706;41.844;26.082;2023-03-25T09:14:52;100354.78;;;20.95;49.44
9335;BME280;4706;41.844;26.082;2023-03-25T09:17:18;100366.03;;;20.98;48.66
9335;BME280;4706;41.844;26.082;2023-03-25T09:19:44;100360.34;;;21.18;48.10
9335;BME280;4706;41.844;26.082;2023-03-25T09:22:09;100360.66;;;21.39;48.07
9335;BME280;4706;41.844;26.082;2023-03-25T09:24:35;100344.72;;;21.17;48.26
9335;BME280;4706;41.844;26.082;2023-03-25T09:27:01;100346.44;;;21.25;48.31
9335;BME280;4706;41.844;26.082;2023-03-25T09:29:27;100354.91;;;21.32;48.17
9335;BME280;4706;41.844;26.082;2023-03-25T09:31:54;100349.06;;;21.71;47.49
9335;BME280;4706;41.844;26.082;2023-03-25T09:34:22;100342.00;;;21.84;47.18
9335;BME280;4706;41.844;26.082;2023-03-25T09:36:48;100331.84;;;22.06;46.43
9335;BME280;4706;41.844;26.082;2023-03-25T09:39:14;100329.63;;;22.22;46.26
9335;BME280;4706;41.844;26.082;2023-03-25T09:44:32;100326.31;;;22.54;45.54
9335;BME280;4706;41.844;26.082;2023-03-25T09:47:00;100320.38;;;22.66;44.77
9335;BME280;4706;41.844;26.082;2023-03-25T09:49:40;100316.81;;;22.21;45.20
9335;BME280;4706;41.844;26.082;2023-03-25T09:52:13;100323.88;;;22.52;44.91
9335;BME280;4706;41.844;26.082;2023-03-25T09:54:47;100320.06;;;22.78;44.06
9335;BME280;4706;41.844;26.082;2023-03-25T09:57:17;100318.06;;;22.79;43.73
9335;BME280;4706;41.844;26.082;2023-03-25T09:59:50;100297.78;;;22.96;43.37
9335;BME280;4706;41.844;26.082;2023-03-25T10:18:28;100285.13;;;23.31;43.18
9335;BME280;4706;41.844;26.082;2023-03-25T10:23:44;100267.94;;;22.70;44.42
9335;BME280;4706;41.844;26.082;2023-03-25T10:28:49;100250.81;;;22.86;43.60
9335;BME280;4706;41.844;26.082;2023-03-25T10:31:18;100239.81;;;23.22;43.13
9335;BME280;4706;41.844;26.082;2023-03-25T10:33:52;100248.59;;;23.13;42.39
9335;BME280;4706;41.844;26.082;2023-03-25T10:36:33;100234.53;;;23.06;42.34
9335;BME280;4706;41.844;26.082;2023-03-25T10:39:01;100235.84;;;23.37;42.67
9335;BME280;4706;41.844;26.082;2023-03-25T10:41:33;100221.38;;;23.32;43.02
9335;BME280;4706;41.844;26.082;2023-03-25T10:44:09;100224.97;;;23.21;43.17
9335;BME280;4706;41.844;26.082;2023-03-25T10:46:46;100210.84;;;23.00;43.02
9335;BME280;4706;41.844;26.082;2023-03-25T10:49:20;100214.69;;;22.74;44.01
9335;BME280;4706;41.844;26.082;2023-03-25T10:51:50;100211.88;;;22.70;44.21
9335;BME280;4706;41.844;26.082;2023-03-25T10:54:20;100193.13;;;22.85;44.02
9335;BME280;4706;41.844;26.082;2023-03-25T10:56:52;100198.88;;;23.10;43.03
9335;BME280;4706;41.844;26.082;2023-03-25T10:59:48;100189.66;;;23.10;43.25
9335;BME280;4706;41.844;26.082;2023-03-25T11:02:22;100186.13;;;23.34;42.65
9335;BME280;4706;41.844;26.082;2023-03-25T11:04:56;100184.91;;;23.39;42.16
9335;BME280;4706;41.844;26.082;2023-03-25T11:12:32;100166.94;;;23.75;40.72
9335;BME280;4706;41.844;26.082;2023-03-25T11:14:58;100155.28;;;23.52;40.98
9335;BME280;4706;41.844;26.082;2023-03-25T11:17:26;100156.44;;;23.33;40.62
9335;BME280;4706;41.844;26.082;2023-03-25T11:19:54;100148.81;;;23.30;41.68
9335;BME280;4706;41.844;26.082;2023-03-25T11:22:25;100141.22;;;23.45;40.96
9335;BME280;4706;41.844;26.082;2023-03-25T11:25:00;100134.38;;;23.32;40.70
9335;BME280;4706;41.844;26.082;2023-03-25T11:27:28;100139.16;;;23.10;41.69
9335;BME280;4706;41.844;26.082;2023-03-25T11:30:16;100136.00;;;23.33;41.20
9335;BME280;4706;41.844;26.082;2023-03-25T11:32:42;100127.25;;;23.66;40.74
9335;BME280;4706;41.844;26.082;2023-03-25T11:35:22;100128.81;;;23.99;39.94
9335;BME280;4706;41.844;26.082;2023-03-25T11:38:00;100121.22;;;23.89;40.00
9335;BME280;4706;41.844;26.082;2023-03-25T11:40:28;100118.84;;;23.73;40.21
9335;BME280;4706;41.844;26.082;2023-03-25T11:42:56;100116.41;;;23.75;41.11
9335;BME280;4706;41.844;26.082;2023-03-25T11:47:51;100108.41;;;23.78;41.33
9335;BME280;4706;41.844;26.082;2023-03-25T11:50:22;100091.53;;;23.60;42.43
9335;BME280;4706;41.844;26.082;2023-03-25T11:52:49;100095.53;;;23.69;43.12
9335;BME280;4706;41.844;26.082;2023-03-25T11:55:21;100084.69;;;23.64;43.63
9335;BME280;4706;41.844;26.082;2023-03-25T11:57:49;100078.22;;;24.10;42.80
9335;BME280;4706;41.844;26.082;2023-03-25T12:00:38;100074.22;;;24.18;41.53
9335;BME280;4706;41.844;26.082;2023-03-25T12:03:17;100072.19;;;24.26;41.62
9335;BME280;4706;41.844;26.082;2023-03-25T12:08:28;100059.75;;;24.20;41.82
9335;BME280;4706;41.844;26.082;2023-03-25T12:11:04;100061.00;;;24.01;42.48
9335;BME280;4706;41.844;26.082;2023-03-25T12:21:03;100048.06;;;24.43;41.30
9335;BME280;4706;41.844;26.082;2023-03-25T12:31:37;100037.84;;;24.74;41.74
9335;BME280;4706;41.844;26.082;2023-03-25T12:40:03;100018.19;;;24.67;40.83
9335;BME280;4706;41.844;26.082;2023-03-25T12:43:35;100012.94;;;24.76;41.35
9335;BME280;4706;41.844;26.082;2023-03-25T12:51:41;100006.13;;;24.74;40.20
9335;BME280;4706;41.844;26.082;2023-03-25T12:59:52;99994.44;;;24.79;39.34
9335;BME280;4706;41.844;26.082;2023-03-25T13:05:18;99993.56;;;24.89;38.89
9335;BME280;4706;41.844;26.082;2023-03-25T13:07:53;99982.34;;;24.85;39.04
9335;BME280;4706;41.844;26.082;2023-03-25T13:10:22;99986.78;;;24.83;38.79
9335;BME280;4706;41.844;26.082;2023-03-25T13:12:57;99981.22;;;24.72;37.78
9335;BME280;4706;41.844;26.082;2023-03-25T13:18:06;99970.75;;;24.76;38.43
9335;BME280;4706;41.844;26.082;2023-03-25T13:21:03;99969.22;;;24.68;38.88
9335;BME280;4706;41.844;26.082;2023-03-25T13:23:34;99958.75;;;24.68;39.39
9335;BME280;4706;41.844;26.082;2023-03-25T13:26:16;99962.38;;;24.69;39.36
9335;BME280;4706;41.844;26.082;2023-03-25T13:28:47;99963.19;;;24.62;39.40
9335;BME280;4706;41.844;26.082;2023-03-25T13:31:27;99960.78;;;24.68;39.41
9335;BME280;4706;41.844;26.082;2023-03-25T13:42:19;99949.84;;;24.04;40.27
9335;BME280;4706;41.844;26.082;2023-03-25T13:44:47;99944.25;;;24.00;40.60
9335;BME280;4706;41.844;26.082;2023-03-25T13:47:30;99942.63;;;23.99;41.35
9335;BME280;4706;41.844;26.082;2023-03-25T13:50:02;99941.06;;;23.87;41.22
9335;BME280;4706;41.844;26.082;2023-03-25T13:52:35;99926.66;;;23.78;41.63
9335;BME280;4706;41.844;26.082;2023-03-25T13:55:11;99927.47;;;23.75;41.90
9335;BME280;4706;41.844;26.082;2023-03-25T14:03:31;99926.69;;;23.67;42.49
9335;BME280;4706;41.844;26.082;2023-03-25T14:14:39;99915.91;;;23.48;42.79
9335;BME280;4706;41.844;26.082;2023-03-25T14:17:06;99905.88;;;23.43;42.76
9335;BME280;4706;41.844;26.082;2023-03-25T14:19:34;99908.69;;;23.47;42.83
9335;BME280;4706;41.844;26.082;2023-03-25T14:22:22;99899.88;;;23.31;42.60
9335;BME280;4706;41.844;26.082;2023-03-25T14:24:49;99885.88;;;23.20;43.03
9335;BME280;4706;41.844;26.082;2023-03-25T14:27:28;99900.31;;;23.15;42.95
9335;BME280;4706;41.844;26.082;2023-03-25T14:30:05;99899.09;;;23.16;43.10
9335;BME280;4706;41.844;26.082;2023-03-25T14:32:40;99901.53;;;23.21;43.97
9335;BME280;4706;41.844;26.082;2023-03-25T14:43:25;99889.09;;;23.11;44.00
9335;BME280;4706;41.844;26.082;2023-03-25T14:49:09;99881.47;;;23.05;44.36
9335;BME280;4706;41.844;26.082;2023-03-25T14:51:41;99877.06;;;22.89;44.66
9335;BME280;4706;41.844;26.082;2023-03-25T14:54:21;99876.69;;;22.91;45.00
9335;BME280;4706;41.844;26.082;2023-03-25T14:57:14;99870.66;;;22.82;45.11
9335;BME280;4706;41.844;26.082;2023-03-25T14:59:59;99859.44;;;22.82;44.79
9335;BME280;4706;41.844;26.082;2023-03-25T15:02:34;99876.69;;;22.87;44.46
9335;BME280;4706;41.844;26.082;2023-03-25T15:05:22;99868.66;;;22.82;45.06
9335;BME280;4706;41.844;26.082;2023-03-25T15:10:47;99868.25;;;22.84;45.30
9335;BME280;4706;41.844;26.082;2023-03-25T15:13:27;99857.06;;;22.76;45.04
9335;BME280;4706;41.844;26.082;2023-03-25T15:15:57;99863.03;;;22.82;45.05
9335;BME280;4706;41.844;26.082;2023-03-25T15:26:10;99857.84;;;22.63;45.82
9335;BME280;4706;41.844;26.082;2023-03-25T15:34:44;99848.63;;;22.44;46.49
9335;BME280;4706;41.844;26.082;2023-03-25T15:56:24;99845.28;;;21.89;48.94
9335;BME280;4706;41.844;26.082;2023-03-25T16:01:28;99849.28;;;21.88;48.85
9335;BME280;4706;41.844;26.082;2023-03-25T16:06:44;99849.66;;;21.82;49.24
9335;BME280;4706;41.844;26.082;2023-03-25T16:09:24;99856.47;;;21.78;49.39
9335;BME280;4706;41.844;26.082;2023-03-25T16:11:51;99857.63;;;21.77;49.70
9335;BME280;4706;41.844;26.082;2023-03-25T16:14:20;99852.34;;;21.54;50.66
9335;BME280;4706;41.844;26.082;2023-03-25T16:16:54;99853.97;;;21.62;51.10
9335;BME280;4706;41.844;26.082;2023-03-25T16:19:43;99859.91;;;21.46;52.12
9335;BME280;4706;41.844;26.082;2023-03-25T16:22:30;99860.31;;;21.45;52.55
9335;BME280;4706;41.844;26.082;2023-03-25T16:25:00;99858.69;;;21.37;52.66
9335;BME280;4706;41.844;26.082;2023-03-25T16:27:33;99868.69;;;21.41;53.15